createdAt,value
2017-01-11T00:00:18.518Z,854.32
2017-01-11T00:00:48.548Z,854.34
2017-01-11T00:01:18.575Z,854.33
2017-01-11T00:01:48.603Z,854.36
2017-01-11T00:02:18.629Z,854.38
2017-01-11T00:02:48.662Z,854.39
2017-01-11T00:03:18.689Z,854.38
2017-01-11T00:03:48.716Z,854.38
2017-01-11T00:04:18.744Z,854.3
2017-01-11T00:04:48.772Z,854.31
2017-01-11T00:05:18.806Z,854.31
2017-01-11T00:05:48.837Z,854.29
2017-01-11T00:06:18.859Z,854.26
2017-01-11T00:06:48.888Z,854.21
2017-01-11T00:07:18.916Z,854.16
2017-01-11T00:07:48.945Z,854.15
2017-01-11T00:08:18.974Z,854.11
2017-01-11T00:08:49.003Z,854.06
2017-01-11T00:09:19.031Z,854.02
2017-01-11T00:09:49.061Z,854.01
2017-01-11T00:10:19.093Z,853.99
2017-01-11T00:10:49.119Z,853.92
2017-01-11T00:11:19.145Z,853.95
2017-01-11T00:11:49.174Z,853.92
2017-01-11T00:12:19.203Z,853.9
2017-01-11T00:12:49.232Z,853.92
2017-01-11T00:13:19.260Z,853.95
2017-01-11T00:13:49.287Z,853.88
2017-01-11T00:14:19.319Z,853.96
2017-01-11T00:14:49.343Z,853.94
2017-01-11T00:15:19.372Z,853.92
2017-01-11T00:15:49.403Z,853.91
2017-01-11T00:16:19.432Z,853.86
2017-01-11T00:16:49.459Z,853.83
2017-01-11T00:17:19.489Z,853.84
2017-01-11T00:17:49.516Z,853.81
2017-01-11T00:18:19.545Z,853.78
2017-01-11T00:18:49.570Z,853.71
2017-01-11T00:19:19.604Z,853.71
2017-01-11T00:19:49.629Z,853.7
2017-01-11T00:20:19.658Z,853.69
2017-01-11T00:20:49.689Z,853.66
2017-01-11T00:21:19.714Z,853.64
2017-01-11T00:21:49.746Z,853.64
2017-01-11T00:22:19.773Z,853.68
2017-01-11T00:22:49.801Z,853.65
2017-01-11T00:23:19.831Z,853.56
2017-01-11T00:23:49.858Z,853.65
2017-01-11T00:24:19.888Z,853.56
2017-01-11T00:24:49.915Z,853.54
2017-01-11T00:25:19.942Z,853.53
2017-01-11T00:25:49.974Z,853.5
2017-01-11T00:26:20.000Z,853.49
2017-01-11T00:26:50.032Z,853.44
2017-01-11T00:27:20.059Z,853.36
2017-01-11T00:27:50.088Z,853.31
2017-01-11T00:28:20.114Z,853.31
2017-01-11T00:28:50.144Z,853.3
2017-01-11T00:29:20.172Z,853.29
2017-01-11T00:29:50.203Z,853.27
2017-01-11T00:30:20.231Z,853.24
2017-01-11T00:30:50.259Z,853.17
2017-01-11T00:31:20.287Z,853.16
2017-01-11T00:31:50.314Z,853.17
2017-01-11T00:32:20.345Z,853.19
2017-01-11T00:32:50.373Z,853.17
2017-01-11T00:33:20.401Z,853.17
2017-01-11T00:33:50.427Z,853.13
2017-01-11T00:34:20.458Z,853.2
2017-01-11T00:34:50.837Z,853.18
2017-01-11T00:35:20.517Z,853.14
2017-01-11T00:35:50.543Z,853.19
2017-01-11T00:36:20.571Z,853.13
2017-01-11T00:36:50.599Z,853.22
2017-01-11T00:37:20.628Z,853.21
2017-01-11T00:37:50.658Z,853.23
2017-01-11T00:38:20.686Z,853.22
2017-01-11T00:38:50.714Z,853.21
2017-01-11T00:39:20.741Z,853.21
2017-01-11T00:39:50.772Z,853.24
2017-01-11T00:40:20.800Z,853.28
2017-01-11T00:40:50.827Z,853.3
2017-01-11T00:41:20.855Z,853.24
2017-01-11T00:41:50.885Z,853.23
2017-01-11T00:42:20.911Z,853.19
2017-01-11T00:42:50.938Z,853.23
2017-01-11T00:43:20.968Z,853.18
2017-01-11T00:43:50.998Z,853.21
2017-01-11T00:44:21.029Z,853.18
2017-01-11T00:44:51.056Z,853.13
2017-01-11T00:45:21.104Z,853.15
2017-01-11T00:45:51.111Z,853.14
2017-01-11T00:46:21.143Z,853.12
2017-01-11T00:46:51.170Z,853.15
2017-01-11T00:47:21.197Z,853.1
2017-01-11T00:47:51.226Z,853.15
2017-01-11T00:48:21.265Z,853.09
2017-01-11T00:48:51.283Z,853.09
2017-01-11T00:49:21.310Z,853.08
2017-01-11T00:49:51.339Z,853.04
2017-01-11T00:50:21.366Z,853.08
2017-01-11T00:50:51.395Z,853.07
2017-01-11T00:51:21.425Z,853.03
2017-01-11T00:51:51.452Z,853.01
2017-01-11T00:52:21.483Z,852.99
2017-01-11T00:52:51.511Z,852.95
2017-01-11T00:53:21.540Z,852.9
2017-01-11T00:53:51.567Z,852.85
2017-01-11T00:54:21.600Z,852.84
2017-01-11T00:54:51.624Z,852.81
2017-01-11T00:55:21.651Z,852.82
2017-01-11T00:55:51.679Z,852.8
2017-01-11T00:56:21.708Z,852.74
2017-01-11T00:56:51.737Z,852.7
2017-01-11T00:57:21.767Z,852.6
2017-01-11T00:57:51.798Z,852.5
2017-01-11T00:58:21.822Z,852.48
2017-01-11T00:58:51.854Z,852.48
2017-01-11T00:59:21.883Z,852.45
2017-01-11T00:59:51.910Z,852.45
2017-01-11T01:00:21.939Z,852.46
2017-01-11T01:00:51.966Z,852.38
2017-01-11T01:01:21.995Z,852.36
2017-01-11T01:01:52.022Z,852.32
2017-01-11T01:02:22.052Z,852.32
2017-01-11T01:02:52.083Z,852.27
2017-01-11T01:03:22.108Z,852.23
2017-01-11T01:03:52.139Z,852.24
2017-01-11T01:04:22.164Z,852.19
2017-01-11T01:04:52.196Z,852.3
2017-01-11T01:05:22.571Z,852.34
2017-01-11T01:05:52.250Z,852.3
2017-01-11T01:06:22.279Z,852.34
2017-01-11T01:06:52.308Z,852.4
2017-01-11T01:07:22.336Z,852.41
2017-01-11T01:07:52.361Z,852.43
2017-01-11T01:08:22.392Z,852.35
2017-01-11T01:08:52.423Z,852.37
2017-01-11T01:09:22.449Z,852.37
2017-01-11T01:09:52.478Z,852.24
2017-01-11T01:10:22.507Z,852.23
2017-01-11T01:10:52.535Z,852.19
2017-01-11T01:11:22.562Z,852.12
2017-01-11T01:11:52.590Z,852.08
2017-01-11T01:12:22.618Z,851.98
2017-01-11T01:12:52.652Z,851.96
2017-01-11T01:13:22.677Z,851.95
2017-01-11T01:13:52.704Z,851.95
2017-01-11T01:14:22.734Z,851.91
2017-01-11T01:14:52.762Z,851.89
2017-01-11T01:15:22.792Z,851.79
2017-01-11T01:15:52.819Z,851.7
2017-01-11T01:16:22.848Z,851.65
2017-01-11T01:16:52.878Z,851.58
2017-01-11T01:17:22.904Z,851.55
2017-01-11T01:17:52.934Z,851.46
2017-01-11T01:18:22.962Z,851.38
2017-01-11T01:18:52.986Z,851.32
2017-01-11T01:19:23.018Z,851.3
2017-01-11T01:19:53.044Z,851.24
2017-01-11T01:20:23.073Z,851.23
2017-01-11T01:20:53.104Z,851.22
2017-01-11T01:21:23.130Z,851.2
2017-01-11T01:21:53.160Z,851.17
2017-01-11T01:22:23.188Z,851.17
2017-01-11T01:22:53.213Z,851.15
2017-01-11T01:23:23.242Z,851.12
2017-01-11T01:23:53.271Z,851.14
2017-01-11T01:24:23.299Z,851.13
2017-01-11T01:24:53.329Z,851.06
2017-01-11T01:25:23.355Z,851.1
2017-01-11T01:25:53.384Z,851.1
2017-01-11T01:26:23.414Z,851.12
2017-01-11T01:26:53.442Z,851.08
2017-01-11T01:27:23.471Z,851.04
2017-01-11T01:27:53.499Z,851.01
2017-01-11T01:28:23.526Z,850.99
2017-01-11T01:28:53.555Z,850.92
2017-01-11T01:29:23.581Z,850.89
2017-01-11T01:29:53.610Z,850.8
2017-01-11T01:30:23.639Z,850.76
2017-01-11T01:30:53.668Z,850.71
2017-01-11T01:31:23.698Z,850.69
2017-01-11T01:31:53.722Z,850.65
2017-01-11T01:32:23.752Z,850.64
2017-01-11T01:32:53.779Z,850.68
2017-01-11T01:33:23.810Z,850.69
2017-01-11T01:33:53.837Z,850.7
2017-01-11T01:34:23.867Z,850.71
2017-01-11T01:34:53.894Z,850.72
2017-01-11T01:35:23.921Z,850.73
2017-01-11T01:35:53.951Z,850.73
2017-01-11T01:36:23.978Z,850.72
2017-01-11T01:36:54.008Z,850.75
2017-01-11T01:37:24.034Z,850.72
2017-01-11T01:37:54.065Z,850.72
2017-01-11T01:38:24.093Z,850.72
2017-01-11T01:38:54.121Z,850.71
2017-01-11T01:39:24.148Z,850.69
2017-01-11T01:39:54.179Z,850.65
2017-01-11T01:40:24.207Z,850.66
2017-01-11T01:40:54.236Z,850.62
2017-01-11T01:41:24.263Z,850.68
2017-01-11T01:41:54.290Z,850.66
2017-01-11T01:42:24.319Z,850.65
2017-01-11T01:42:54.346Z,850.65
2017-01-11T01:43:24.375Z,850.6
2017-01-11T01:43:54.403Z,850.54
2017-01-11T01:44:24.432Z,850.44
2017-01-11T01:44:54.461Z,850.4
2017-01-11T01:45:24.487Z,850.31
2017-01-11T01:45:54.521Z,850.28
2017-01-11T01:46:24.545Z,850.26
2017-01-11T01:46:54.573Z,850.24
2017-01-11T01:47:24.602Z,850.15
2017-01-11T01:47:54.630Z,850.13
2017-01-11T01:48:24.656Z,850.07
2017-01-11T01:48:54.684Z,850.05
2017-01-11T01:49:24.714Z,849.97
2017-01-11T01:49:54.741Z,849.95
2017-01-11T01:50:24.772Z,849.98
2017-01-11T01:50:54.800Z,849.97
2017-01-11T01:51:24.827Z,849.93
2017-01-11T01:51:54.856Z,849.92
2017-01-11T01:52:24.883Z,849.94
2017-01-11T01:52:54.910Z,849.92
2017-01-11T01:53:24.940Z,849.94
2017-01-11T01:53:54.968Z,849.93
2017-01-11T01:54:24.994Z,849.92
2017-01-11T01:54:55.026Z,849.95
2017-01-11T01:55:25.053Z,849.96
2017-01-11T01:55:55.080Z,849.94
2017-01-11T01:56:25.107Z,849.91
2017-01-11T01:56:55.136Z,849.9
2017-01-11T01:57:25.165Z,849.88
2017-01-11T01:57:55.194Z,849.82
2017-01-11T01:58:25.222Z,849.81
2017-01-11T01:58:55.250Z,849.75
2017-01-11T01:59:25.285Z,849.74
2017-01-11T01:59:55.303Z,849.69
2017-01-11T02:00:25.332Z,849.72
2017-01-11T02:00:55.362Z,849.69
2017-01-11T02:01:25.388Z,849.72
2017-01-11T02:01:55.414Z,849.69
2017-01-11T02:02:25.444Z,849.67
2017-01-11T02:02:55.476Z,849.71
2017-01-11T02:03:25.502Z,849.64
2017-01-11T02:03:55.528Z,849.58
2017-01-11T02:04:25.558Z,849.56
2017-01-11T02:04:55.589Z,849.51
2017-01-11T02:05:25.614Z,849.48
2017-01-11T02:05:55.642Z,849.44
2017-01-11T02:06:25.671Z,849.43
2017-01-11T02:06:55.698Z,849.46
2017-01-11T02:07:25.724Z,849.5
2017-01-11T02:07:55.753Z,849.52
2017-01-11T02:08:25.780Z,849.58
2017-01-11T02:08:55.810Z,849.65
2017-01-11T02:09:25.835Z,849.69
2017-01-11T02:09:55.868Z,849.72
2017-01-11T02:10:25.894Z,849.73
2017-01-11T02:10:55.922Z,849.75
2017-01-11T02:11:25.950Z,849.78
2017-01-11T02:11:55.979Z,849.8
2017-01-11T02:12:26.004Z,849.82
2017-01-11T02:12:56.034Z,849.83
2017-01-11T02:13:26.060Z,849.8
2017-01-11T02:13:56.098Z,849.69
2017-01-11T02:14:26.121Z,849.75
2017-01-11T02:14:56.146Z,849.63
2017-01-11T02:15:26.173Z,849.67
2017-01-11T02:15:56.201Z,849.69
2017-01-11T02:16:26.230Z,849.66
2017-01-11T02:16:56.258Z,849.61
2017-01-11T02:17:26.286Z,849.59
2017-01-11T02:17:56.313Z,849.57
2017-01-11T02:18:26.342Z,849.49
2017-01-11T02:18:56.370Z,849.53
2017-01-11T02:19:26.400Z,849.49
2017-01-11T02:19:56.424Z,849.52
2017-01-11T02:20:26.457Z,849.48
2017-01-11T02:20:56.483Z,849.5
2017-01-11T02:21:26.510Z,849.56
2017-01-11T02:21:56.538Z,849.61
2017-01-11T02:22:26.567Z,849.64
2017-01-11T02:22:56.595Z,849.64
2017-01-11T02:23:26.622Z,849.65
2017-01-11T02:23:56.650Z,849.69
2017-01-11T02:24:26.677Z,849.78
2017-01-11T02:24:56.709Z,849.85
2017-01-11T02:25:26.737Z,849.88
2017-01-11T02:25:56.763Z,849.95
2017-01-11T02:26:26.792Z,849.89
2017-01-11T02:26:56.820Z,849.96
2017-01-11T02:27:26.847Z,849.98
2017-01-11T02:27:56.876Z,849.98
2017-01-11T02:28:26.904Z,850.01
2017-01-11T02:28:56.932Z,850.03
2017-01-11T02:29:26.960Z,850.04
2017-01-11T02:29:56.987Z,850.08
2017-01-11T02:30:27.016Z,850.1
2017-01-11T02:30:57.043Z,850.16
2017-01-11T02:31:27.072Z,850.14
2017-01-11T02:31:57.106Z,850.16
2017-01-11T02:32:27.126Z,850.22
2017-01-11T02:32:57.156Z,850.23
2017-01-11T02:33:27.186Z,850.23
2017-01-11T02:33:57.215Z,850.27
2017-01-11T02:34:27.238Z,850.28
2017-01-11T02:34:57.268Z,850.31
2017-01-11T02:35:27.296Z,850.34
2017-01-11T02:35:57.325Z,850.35
2017-01-11T02:36:27.353Z,850.35
2017-01-11T02:36:57.381Z,850.38
2017-01-11T02:37:27.559Z,850.39
2017-01-11T02:37:57.437Z,850.35
2017-01-11T02:38:27.468Z,850.34
2017-01-11T02:38:57.493Z,850.34
2017-01-11T02:39:27.522Z,850.32
2017-01-11T02:39:57.549Z,850.31
2017-01-11T02:40:27.577Z,850.33
2017-01-11T02:40:57.606Z,850.4
2017-01-11T02:41:27.637Z,850.39
2017-01-11T02:41:57.662Z,850.39
2017-01-11T02:42:27.691Z,850.43
2017-01-11T02:42:57.719Z,850.4
2017-01-11T02:43:27.747Z,850.4
2017-01-11T02:43:57.775Z,850.32
2017-01-11T02:44:27.804Z,850.27
2017-01-11T02:44:57.831Z,850.22
2017-01-11T02:45:27.860Z,850.23
2017-01-11T02:45:57.886Z,850.2
2017-01-11T02:46:27.916Z,850.23
2017-01-11T02:46:57.946Z,850.25
2017-01-11T02:47:27.971Z,850.31
2017-01-11T02:47:57.999Z,850.34
2017-01-11T02:48:28.028Z,850.36
2017-01-11T02:48:58.057Z,850.38
2017-01-11T02:49:28.083Z,850.45
2017-01-11T02:49:58.115Z,850.46
2017-01-11T02:50:28.141Z,850.42
2017-01-11T02:50:58.169Z,850.48
2017-01-11T02:51:28.197Z,850.49
2017-01-11T02:51:58.226Z,850.47
2017-01-11T02:52:28.255Z,850.44
2017-01-11T02:52:58.283Z,850.5
2017-01-11T02:53:28.313Z,850.51
2017-01-11T02:53:58.339Z,850.54
2017-01-11T02:54:28.368Z,850.57
2017-01-11T02:54:58.397Z,850.57
2017-01-11T02:55:28.424Z,850.61
2017-01-11T02:55:58.452Z,850.57
2017-01-11T02:56:28.479Z,850.64
2017-01-11T02:56:58.510Z,850.65
2017-01-11T02:57:28.536Z,850.65
2017-01-11T02:57:58.566Z,850.69
2017-01-11T02:58:28.595Z,850.68
2017-01-11T02:58:58.621Z,850.67
2017-01-11T02:59:28.646Z,850.63
2017-01-11T02:59:58.678Z,850.59
2017-01-11T03:00:28.704Z,850.62
2017-01-11T03:00:58.735Z,850.55
2017-01-11T03:01:28.763Z,850.55
2017-01-11T03:01:58.791Z,850.52
2017-01-11T03:02:28.818Z,850.53
2017-01-11T03:02:58.845Z,850.54
2017-01-11T03:03:28.875Z,850.53
2017-01-11T03:03:58.901Z,850.52
2017-01-11T03:04:28.931Z,850.51
2017-01-11T03:04:58.958Z,850.52
2017-01-11T03:05:28.987Z,850.5
2017-01-11T03:05:59.011Z,850.49
2017-01-11T03:06:29.045Z,850.46
2017-01-11T03:06:59.069Z,850.43
2017-01-11T03:07:29.099Z,850.45
2017-01-11T03:07:59.125Z,850.48
2017-01-11T03:08:29.157Z,850.53
2017-01-11T03:08:59.183Z,850.55
2017-01-11T03:09:29.210Z,850.52
2017-01-11T03:09:59.240Z,850.47
2017-01-11T03:10:29.266Z,850.49
2017-01-11T03:10:59.297Z,850.52
2017-01-11T03:11:29.324Z,850.54
2017-01-11T03:11:59.356Z,850.54
2017-01-11T03:12:29.382Z,850.57
2017-01-11T03:12:59.409Z,850.59
2017-01-11T03:13:29.438Z,850.64
2017-01-11T03:13:59.467Z,850.68
2017-01-11T03:14:29.497Z,850.72
2017-01-11T03:14:59.524Z,850.73
2017-01-11T03:15:29.552Z,850.79
2017-01-11T03:15:59.579Z,850.76
2017-01-11T03:16:29.606Z,850.79
2017-01-11T03:16:59.636Z,850.83
2017-01-11T03:17:29.666Z,850.87
2017-01-11T03:17:59.694Z,850.88
2017-01-11T03:18:29.719Z,850.87
2017-01-11T03:18:59.748Z,850.89
2017-01-11T03:19:29.775Z,850.89
2017-01-11T03:19:59.805Z,850.9
2017-01-11T03:20:29.834Z,850.93
2017-01-11T03:20:59.864Z,850.91
2017-01-11T03:21:29.891Z,850.85
2017-01-11T03:21:59.919Z,850.89
2017-01-11T03:22:29.947Z,850.94
2017-01-11T03:22:59.974Z,851
2017-01-11T03:23:30.003Z,851
2017-01-11T03:24:00.036Z,851.14
2017-01-11T03:24:30.060Z,851.2
2017-01-11T03:25:00.089Z,851.14
2017-01-11T03:25:30.114Z,851.22
2017-01-11T03:26:00.143Z,851.27
2017-01-11T03:26:30.172Z,851.3
2017-01-11T03:27:00.201Z,851.3
2017-01-11T03:27:30.231Z,851.24
2017-01-11T03:28:00.259Z,851.19
2017-01-11T03:28:30.289Z,851.15
2017-01-11T03:29:00.317Z,851.17
2017-01-11T03:29:30.345Z,851.11
2017-01-11T03:30:00.373Z,851.17
2017-01-11T03:30:30.400Z,851.21
2017-01-11T03:31:00.427Z,851.2
2017-01-11T03:31:30.459Z,851.19
2017-01-11T03:32:00.486Z,851.25
2017-01-11T03:32:30.515Z,851.2
2017-01-11T03:33:00.542Z,851.27
2017-01-11T03:33:30.568Z,851.3
2017-01-11T03:34:00.599Z,851.31
2017-01-11T03:34:30.629Z,851.26
2017-01-11T03:35:00.655Z,851.27
2017-01-11T03:35:30.685Z,851.34
2017-01-11T03:36:00.713Z,851.31
2017-01-11T03:36:30.742Z,851.28
2017-01-11T03:37:00.770Z,851.25
2017-01-11T03:37:30.799Z,851.19
2017-01-11T03:38:00.827Z,851.13
2017-01-11T03:38:30.859Z,851.05
2017-01-11T03:39:00.884Z,850.96
2017-01-11T03:39:30.911Z,850.96
2017-01-11T03:40:00.941Z,850.88
2017-01-11T03:40:30.969Z,850.82
2017-01-11T03:41:00.999Z,850.77
2017-01-11T03:41:31.025Z,850.75
2017-01-11T03:42:01.054Z,850.63
2017-01-11T03:42:31.082Z,850.58
2017-01-11T03:43:01.110Z,850.48
2017-01-11T03:43:31.139Z,850.43
2017-01-11T03:44:01.170Z,850.32
2017-01-11T03:44:31.195Z,850.3
2017-01-11T03:45:01.224Z,850.2
2017-01-11T03:45:31.252Z,850.15
2017-01-11T03:46:01.281Z,850.14
2017-01-11T03:46:31.308Z,850.06
2017-01-11T03:47:01.337Z,850.01
2017-01-11T03:47:31.366Z,849.92
2017-01-11T03:48:01.393Z,849.88
2017-01-11T03:48:31.421Z,849.87
2017-01-11T03:49:01.751Z,849.84
2017-01-11T03:49:31.476Z,849.8
2017-01-11T03:50:01.506Z,849.79
2017-01-11T03:50:31.533Z,849.8
2017-01-11T03:51:01.563Z,849.74
2017-01-11T03:51:31.590Z,849.74
2017-01-11T03:52:01.621Z,849.73
2017-01-11T03:52:31.647Z,849.69
2017-01-11T03:53:01.676Z,849.72
2017-01-11T03:53:31.704Z,849.75
2017-01-11T03:54:01.730Z,849.79
2017-01-11T03:54:31.760Z,849.87
2017-01-11T03:55:02.094Z,849.82
2017-01-11T03:55:31.816Z,849.88
2017-01-11T03:56:01.845Z,849.93
2017-01-11T03:56:31.875Z,849.94
2017-01-11T03:57:02.151Z,850.01
2017-01-11T03:57:31.931Z,850.05
2017-01-11T03:58:01.957Z,850.09
2017-01-11T03:58:31.994Z,850.12
2017-01-11T03:59:02.014Z,850.12
2017-01-11T03:59:32.043Z,850.12
2017-01-11T04:00:02.121Z,850.12
2017-01-11T04:00:32.100Z,850.11
2017-01-11T04:01:02.128Z,850.1
2017-01-11T04:01:32.156Z,850.03
2017-01-11T04:02:02.234Z,849.96
2017-01-11T04:02:32.213Z,849.93
2017-01-11T04:03:02.490Z,849.91
2017-01-11T04:03:32.269Z,849.86
2017-01-11T04:04:02.298Z,849.83
2017-01-11T04:04:32.323Z,849.88
2017-01-11T04:05:02.354Z,849.8
2017-01-11T04:05:32.383Z,849.75
2017-01-11T04:06:02.660Z,849.75
2017-01-11T04:06:32.438Z,849.83
2017-01-11T04:07:02.615Z,849.8
2017-01-11T04:07:32.496Z,849.84
2017-01-11T04:08:02.522Z,849.89
2017-01-11T04:08:32.552Z,849.88
2017-01-11T04:09:02.578Z,849.8
2017-01-11T04:09:32.606Z,849.9
2017-01-11T04:10:02.646Z,849.93
2017-01-11T04:10:32.660Z,849.94
2017-01-11T04:11:02.691Z,849.95
2017-01-11T04:11:32.721Z,849.97
2017-01-11T04:12:02.749Z,850
2017-01-11T04:12:32.775Z,850.06
2017-01-11T04:13:02.804Z,850.04
2017-01-11T04:13:32.833Z,850.04
2017-01-11T04:14:02.862Z,850.07
2017-01-11T04:14:32.891Z,850.11
2017-01-11T04:15:02.918Z,850.14
2017-01-11T04:15:32.947Z,850.21
2017-01-11T04:16:02.974Z,850.21
2017-01-11T04:16:33.003Z,850.26
2017-01-11T04:17:03.032Z,850.27
2017-01-11T04:17:33.058Z,850.25
2017-01-11T04:18:03.085Z,850.25
2017-01-11T04:18:33.115Z,850.29
2017-01-11T04:19:03.144Z,850.32
2017-01-11T04:19:33.171Z,850.32
2017-01-11T04:20:03.199Z,850.35
2017-01-11T04:20:33.229Z,850.35
2017-01-11T04:21:03.255Z,850.41
2017-01-11T04:21:33.286Z,850.43
2017-01-11T04:22:03.315Z,850.5
2017-01-11T04:22:33.341Z,850.53
2017-01-11T04:23:03.370Z,850.57
2017-01-11T04:23:33.398Z,850.59
2017-01-11T04:24:03.426Z,850.63
2017-01-11T04:24:33.461Z,850.66
2017-01-11T04:25:03.482Z,850.71
2017-01-11T04:25:33.515Z,850.74
2017-01-11T04:26:03.540Z,850.75
2017-01-11T04:26:33.568Z,850.74
2017-01-11T04:27:03.595Z,850.75
2017-01-11T04:27:33.625Z,850.72
2017-01-11T04:28:03.655Z,850.73
2017-01-11T04:28:33.683Z,850.75
2017-01-11T04:29:03.709Z,850.76
2017-01-11T04:29:33.740Z,850.74
2017-01-11T04:30:03.768Z,850.8
2017-01-11T04:30:33.794Z,850.77
2017-01-11T04:31:03.828Z,850.78
2017-01-11T04:31:33.855Z,850.82
2017-01-11T04:32:03.880Z,850.79
2017-01-11T04:33:03.936Z,850.8
2017-01-11T04:33:33.964Z,850.8
2017-01-11T04:34:03.993Z,850.85
2017-01-11T04:34:34.023Z,850.87
2017-01-11T04:35:04.049Z,850.83
2017-01-11T04:35:34.084Z,850.86
2017-01-11T04:36:04.107Z,850.86
2017-01-11T04:36:34.135Z,850.93
2017-01-11T04:37:04.162Z,850.87
2017-01-11T04:37:34.189Z,850.86
2017-01-11T04:38:04.220Z,850.85
2017-01-11T04:38:34.247Z,850.87
2017-01-11T04:39:04.274Z,850.83
2017-01-11T04:39:34.306Z,850.83
2017-01-11T04:40:04.335Z,850.83
2017-01-11T04:40:34.361Z,850.83
2017-01-11T04:41:04.386Z,850.82
2017-01-11T04:41:34.416Z,850.83
2017-01-11T04:42:04.446Z,850.81
2017-01-11T04:42:34.479Z,850.76
2017-01-11T04:43:04.498Z,850.78
2017-01-11T04:43:34.531Z,850.73
2017-01-11T04:44:04.557Z,850.78
2017-01-11T04:44:34.587Z,850.76
2017-01-11T04:45:04.612Z,850.75
2017-01-11T04:45:34.644Z,850.76
2017-01-11T04:46:04.671Z,850.73
2017-01-11T04:46:34.698Z,850.76
2017-01-11T04:47:04.728Z,850.79
2017-01-11T04:47:34.754Z,850.81
2017-01-11T04:48:04.784Z,850.8
2017-01-11T04:48:34.814Z,850.88
2017-01-11T04:49:04.841Z,850.87
2017-01-11T04:49:34.869Z,850.93
2017-01-11T04:50:04.896Z,850.96
2017-01-11T04:50:34.923Z,850.98
2017-01-11T04:51:04.955Z,851.06
2017-01-11T04:51:34.983Z,851.09
2017-01-11T04:52:05.010Z,851.08
2017-01-11T04:52:35.037Z,851.12
2017-01-11T04:53:05.068Z,851.14
2017-01-11T04:53:35.092Z,851.27
2017-01-11T04:54:05.123Z,851.31
2017-01-11T04:54:35.151Z,851.34
2017-01-11T04:55:05.178Z,851.33
2017-01-11T04:55:35.206Z,851.39
2017-01-11T04:56:05.236Z,851.44
2017-01-11T04:56:35.266Z,851.46
2017-01-11T04:57:05.292Z,851.5
2017-01-11T04:57:35.320Z,851.52
2017-01-11T04:58:05.349Z,851.57
2017-01-11T04:58:35.378Z,851.57
2017-01-11T04:59:05.406Z,851.63
2017-01-11T04:59:35.436Z,851.62
2017-01-11T05:00:05.462Z,851.62
2017-01-11T05:00:35.490Z,851.59
2017-01-11T05:01:05.520Z,851.66
2017-01-11T05:01:35.549Z,851.7
2017-01-11T05:02:05.578Z,851.74
2017-01-11T05:02:35.605Z,851.78
2017-01-11T05:03:05.637Z,851.74
2017-01-11T05:03:35.661Z,851.79
2017-01-11T05:04:05.689Z,851.82
2017-01-11T05:04:35.724Z,851.83
2017-01-11T05:05:05.745Z,851.86
2017-01-11T05:05:35.774Z,851.89
2017-01-11T05:06:05.802Z,851.91
2017-01-11T05:06:35.831Z,851.94
2017-01-11T05:07:05.860Z,851.97
2017-01-11T05:07:35.889Z,851.92
2017-01-11T05:08:05.920Z,851.95
2017-01-11T05:08:35.944Z,851.96
2017-01-11T05:09:05.973Z,852
2017-01-11T05:09:36.002Z,851.97
2017-01-11T05:10:06.032Z,851.93
2017-01-11T05:10:36.059Z,852
2017-01-11T05:11:06.089Z,851.99
2017-01-11T05:11:36.118Z,851.97
2017-01-11T05:12:06.144Z,852.09
2017-01-11T05:12:36.174Z,852.05
2017-01-11T05:13:06.200Z,852.1
2017-01-11T05:13:36.233Z,852.13
2017-01-11T05:14:06.257Z,852.08
2017-01-11T05:14:36.285Z,852.1
2017-01-11T05:15:06.315Z,852.17
2017-01-11T05:15:36.345Z,852.14
2017-01-11T05:16:06.371Z,852.15
2017-01-11T05:16:36.401Z,852.17
2017-01-11T05:17:06.428Z,852.19
2017-01-11T05:17:36.456Z,852.18
2017-01-11T05:18:06.484Z,852.18
2017-01-11T05:18:36.526Z,852.22
2017-01-11T05:19:06.542Z,852.15
2017-01-11T05:19:36.572Z,852.19
2017-01-11T05:20:06.599Z,852.14
2017-01-11T05:20:36.625Z,852.13
2017-01-11T05:21:06.654Z,852.1
2017-01-11T05:21:36.684Z,852.05
2017-01-11T05:22:06.710Z,852.06
2017-01-11T05:22:36.740Z,852.03
2017-01-11T05:23:06.767Z,851.95
2017-01-11T05:23:36.795Z,851.94
2017-01-11T05:24:06.828Z,851.94
2017-01-11T05:24:36.851Z,851.94
2017-01-11T05:25:06.883Z,851.9
2017-01-11T05:25:36.908Z,851.95
2017-01-11T05:26:06.937Z,851.95
2017-01-11T05:26:36.966Z,851.9
2017-01-11T05:27:06.994Z,851.92
2017-01-11T05:27:37.024Z,851.85
2017-01-11T05:28:07.051Z,851.9
2017-01-11T05:28:37.079Z,851.91
2017-01-11T05:29:07.107Z,851.86
2017-01-11T05:29:37.135Z,851.9
2017-01-11T05:30:07.165Z,851.94
2017-01-11T05:30:37.192Z,851.93
2017-01-11T05:31:07.222Z,851.95
2017-01-11T05:31:37.249Z,851.99
2017-01-11T05:32:07.278Z,852.06
2017-01-11T05:32:37.304Z,852.06
2017-01-11T05:33:07.333Z,852.08
2017-01-11T05:33:37.361Z,852.08
2017-01-11T05:34:07.389Z,852.13
2017-01-11T05:34:37.419Z,852.15
2017-01-11T05:35:07.447Z,852.18
2017-01-11T05:35:37.473Z,852.19
2017-01-11T05:36:07.505Z,852.22
2017-01-11T05:36:37.534Z,852.22
2017-01-11T05:37:07.562Z,852.28
2017-01-11T05:37:37.590Z,852.26
2017-01-11T05:38:07.617Z,852.27
2017-01-11T05:38:37.647Z,852.32
2017-01-11T05:39:07.676Z,852.34
2017-01-11T05:39:37.705Z,852.31
2017-01-11T05:40:07.735Z,852.36
2017-01-11T05:40:37.758Z,852.38
2017-01-11T05:41:07.788Z,852.34
2017-01-11T05:41:37.817Z,852.37
2017-01-11T05:42:07.846Z,852.38
2017-01-11T05:42:37.874Z,852.4
2017-01-11T05:43:07.908Z,852.44
2017-01-11T05:43:37.931Z,852.36
2017-01-11T05:44:07.959Z,852.35
2017-01-11T05:44:37.987Z,852.38
2017-01-11T05:45:08.017Z,852.39
2017-01-11T05:45:38.043Z,852.37
2017-01-11T05:46:08.069Z,852.48
2017-01-11T05:46:38.100Z,852.42
2017-01-11T05:47:08.128Z,852.47
2017-01-11T05:47:38.158Z,852.42
2017-01-11T05:48:08.188Z,852.45
2017-01-11T05:48:38.213Z,852.5
2017-01-11T05:49:08.243Z,852.44
2017-01-11T05:49:38.270Z,852.42
2017-01-11T05:50:08.297Z,852.47
2017-01-11T05:50:38.327Z,852.51
2017-01-11T05:51:08.356Z,852.48
2017-01-11T05:51:38.382Z,852.51
2017-01-11T05:52:08.415Z,852.46
2017-01-11T05:52:38.444Z,852.47
2017-01-11T05:53:08.468Z,852.52
2017-01-11T05:53:38.499Z,852.49
2017-01-11T05:54:08.524Z,852.59
2017-01-11T05:54:38.555Z,852.59
2017-01-11T05:55:08.583Z,852.6
2017-01-11T05:55:38.611Z,852.58
2017-01-11T05:56:08.640Z,852.61
2017-01-11T05:56:38.666Z,852.59
2017-01-11T05:57:08.696Z,852.58
2017-01-11T05:57:38.727Z,852.5
2017-01-11T05:58:08.755Z,852.47
2017-01-11T05:58:38.781Z,852.51
2017-01-11T05:59:08.812Z,852.42
2017-01-11T05:59:38.840Z,852.34
2017-01-11T06:00:08.869Z,852.34
2017-01-11T06:00:38.896Z,852.31
2017-01-11T06:01:08.926Z,852.3
2017-01-11T06:01:38.954Z,852.21
2017-01-11T06:02:08.981Z,852.18
2017-01-11T06:02:39.011Z,852.18
2017-01-11T06:03:09.039Z,852.16
2017-01-11T06:03:39.068Z,852.12
2017-01-11T06:04:09.093Z,852.1
2017-01-11T06:04:39.122Z,852.09
2017-01-11T06:05:09.152Z,852.02
2017-01-11T06:05:39.182Z,852.02
2017-01-11T06:06:09.208Z,852.03
2017-01-11T06:06:39.237Z,852.08
2017-01-11T06:07:09.265Z,852.04
2017-01-11T06:07:39.295Z,852.09
2017-01-11T06:08:09.322Z,852.11
2017-01-11T06:08:39.351Z,852.14
2017-01-11T06:09:09.377Z,852.15
2017-01-11T06:09:39.408Z,852.21
2017-01-11T06:10:09.435Z,852.21
2017-01-11T06:10:39.462Z,852.23
2017-01-11T06:11:09.494Z,852.3
2017-01-11T06:11:39.520Z,852.33
2017-01-11T06:12:09.748Z,852.35
2017-01-11T06:12:39.577Z,852.37
2017-01-11T06:13:09.606Z,852.38
2017-01-11T06:13:39.634Z,852.42
2017-01-11T06:14:09.663Z,852.46
2017-01-11T06:14:39.690Z,852.47
2017-01-11T06:15:09.724Z,852.57
2017-01-11T06:15:39.748Z,852.61
2017-01-11T06:16:09.775Z,852.65
2017-01-11T06:16:39.806Z,852.69